sensor_id;sensor_type;location;lat;lon;timestamp;temperature;humidity
50947;DHT22;36955;47.416;7.716;2022-11-15T00:00:53;10.90;99.90
50947;DHT22;36955;47.416;7.716;2022-11-15T00:03:22;10.90;99.90
50947;DHT22;36955;47.416;7.716;2022-11-15T00:05:48;10.80;99.90
50947;DHT22;36955;47.416;7.716;2022-11-15T00:08:15;10.70;99.90
50947;DHT22;36955;47.416;7.716;2022-11-15T00:10:41;10.70;99.90
50947;DHT22;36955;47.416;7.716;2022-11-15T00:13:08;10.80;99.90
50947;DHT22;36955;47.416;7.716;2022-11-15T00:15:36;10.70;99.90
50947;DHT22;36955;47.416;7.716;2022-11-15T00:18:03;10.80;99.90
50947;DHT22;36955;47.416;7.716;2022-11-15T00:20:29;10.80;99.90
50947;DHT22;36955;47.416;7.716;2022-11-15T00:22:55;10.80;99.90
50947;DHT22;36955;47.416;7.716;2022-11-15T00:25:21;10.70;99.90
50947;DHT22;36955;47.416;7.716;2022-11-15T00:27:47;10.60;99.90
50947;DHT22;36955;47.416;7.716;2022-11-15T00:30:13;10.60;99.90
50947;DHT22;36955;47.416;7.716;2022-11-15T00:32:39;10.60;99.90
50947;DHT22;36955;47.416;7.716;2022-11-15T00:35:05;10.60;99.90
50947;DHT22;36955;47.416;7.716;2022-11-15T00:37:31;10.60;99.90
50947;DHT22;36955;47.416;7.716;2022-11-15T00:39:57;10.60;99.90
50947;DHT22;36955;47.416;7.716;2022-11-15T00:42:23;10.60;99.90
50947;DHT22;36955;47.416;7.716;2022-11-15T00:44:49;10.70;99.90
50947;DHT22;36955;47.416;7.716;2022-11-15T00:47:15;10.70;99.90
50947;DHT22;36955;47.416;7.716;2022-11-15T00:49:41;10.60;99.90
50947;DHT22;36955;47.416;7.716;2022-11-15T00:52:07;10.60;99.90
50947;DHT22;36955;47.416;7.716;2022-11-15T00:54:33;10.60;99.90
50947;DHT22;36955;47.416;7.716;2022-11-15T00:56:59;10.60;99.90
50947;DHT22;36955;47.416;7.716;2022-11-15T00:59:26;10.60;99.90
50947;DHT22;36955;47.416;7.716;2022-11-15T01:01:52;10.60;99.90
50947;DHT22;36955;47.416;7.716;2022-11-15T01:04:18;10.60;99.90
50947;DHT22;36955;47.416;7.716;2022-11-15T01:06:44;10.60;99.90
50947;DHT22;36955;47.416;7.716;2022-11-15T01:09:10;10.50;99.90
50947;DHT22;36955;47.416;7.716;2022-11-15T01:11:36;10.50;99.90
50947;DHT22;36955;47.416;7.716;2022-11-15T01:14:02;10.50;99.90
50947;DHT22;36955;47.416;7.716;2022-11-15T01:16:28;10.50;99.90
50947;DHT22;36955;47.416;7.716;2022-11-15T01:18:54;10.50;99.90
50947;DHT22;36955;47.416;7.716;2022-11-15T01:21:21;10.50;99.90
50947;DHT22;36955;47.416;7.716;2022-11-15T01:23:47;10.50;99.90
50947;DHT22;36955;47.416;7.716;2022-11-15T01:26:15;10.60;99.90
50947;DHT22;36955;47.416;7.716;2022-11-15T01:28:42;10.60;99.90
50947;DHT22;36955;47.416;7.716;2022-11-15T01:31:16;10.60;99.90
50947;DHT22;36955;47.416;7.716;2022-11-15T01:33:42;10.70;99.90
50947;DHT22;36955;47.416;7.716;2022-11-15T01:36:12;10.70;99.90
50947;DHT22;36955;47.416;7.716;2022-11-15T01:38:39;10.70;99.90
50947;DHT22;36955;47.416;7.716;2022-11-15T01:41:05;10.80;99.90
50947;DHT22;36955;47.416;7.716;2022-11-15T01:43:33;10.90;99.90
50947;DHT22;36955;47.416;7.716;2022-11-15T01:48:33;10.90;99.90
50947;DHT22;36955;47.416;7.716;2022-11-15T01:51:01;10.90;99.90
50947;DHT22;36955;47.416;7.716;2022-11-15T01:53:30;10.90;99.90
50947;DHT22;36955;47.416;7.716;2022-11-15T01:55:57;11.00;99.90
50947;DHT22;36955;47.416;7.716;2022-11-15T01:58:24;11.00;99.90
50947;DHT22;36955;47.416;7.716;2022-11-15T02:00:51;11.00;99.90
50947;DHT22;36955;47.416;7.716;2022-11-15T02:03:18;10.90;99.90
50947;DHT22;36955;47.416;7.716;2022-11-15T02:05:44;10.80;99.90
50947;DHT22;36955;47.416;7.716;2022-11-15T02:08:11;10.80;99.90
50947;DHT22;36955;47.416;7.716;2022-11-15T02:10:37;10.90;99.90
50947;DHT22;36955;47.416;7.716;2022-11-15T02:13:03;11.00;99.90
50947;DHT22;36955;47.416;7.716;2022-11-15T02:15:36;11.00;99.90
50947;DHT22;36955;47.416;7.716;2022-11-15T02:18:12;11.10;99.90
50947;DHT22;36955;47.416;7.716;2022-11-15T02:20:47;11.20;99.90
50947;DHT22;36955;47.416;7.716;2022-11-15T02:32:04;11.20;99.90
50947;DHT22;36955;47.416;7.716;2022-11-15T02:34:54;11.20;99.90
50947;DHT22;36955;47.416;7.716;2022-11-15T02:37:31;11.20;99.90
50947;DHT22;36955;47.416;7.716;2022-11-15T02:40:07;11.20;99.90
50947;DHT22;36955;47.416;7.716;2022-11-15T02:42:38;11.20;99.90
50947;DHT22;36955;47.416;7.716;2022-11-15T02:45:07;11.20;99.90
50947;DHT22;36955;47.416;7.716;2022-11-15T02:47:43;11.10;99.90
50947;DHT22;36955;47.416;7.716;2022-11-15T02:50:18;11.00;99.90
50947;DHT22;36955;47.416;7.716;2022-11-15T02:52:51;11.00;99.90
50947;DHT22;36955;47.416;7.716;2022-11-15T02:55:30;10.90;99.90
50947;DHT22;36955;47.416;7.716;2022-11-15T03:11:14;10.50;99.90
50947;DHT22;36955;47.416;7.716;2022-11-15T03:16:49;10.30;99.90
50947;DHT22;36955;47.416;7.716;2022-11-15T03:19:31;10.20;99.90
50947;DHT22;36955;47.416;7.716;2022-11-15T03:22:00;10.20;99.90
50947;DHT22;36955;47.416;7.716;2022-11-15T03:24:29;10.20;99.90
50947;DHT22;36955;47.416;7.716;2022-11-15T03:26:57;10.10;99.90
50947;DHT22;36955;47.416;7.716;2022-11-15T03:29:33;10.10;99.90
50947;DHT22;36955;47.416;7.716;2022-11-15T03:32:09;10.10;99.90
50947;DHT22;36955;47.416;7.716;2022-11-15T03:34:41;10.10;99.90
50947;DHT22;36955;47.416;7.716;2022-11-15T03:37:10;10.10;99.90
50947;DHT22;36955;47.416;7.716;2022-11-15T03:39:39;10.10;99.90
50947;DHT22;36955;47.416;7.716;2022-11-15T03:42:32;10.10;99.90
50947;DHT22;36955;47.416;7.716;2022-11-15T03:45:14;10.20;99.90
50947;DHT22;36955;47.416;7.716;2022-11-15T03:47:43;10.20;99.90
50947;DHT22;36955;47.416;7.716;2022-11-15T03:50:14;10.20;99.90
50947;DHT22;36955;47.416;7.716;2022-11-15T03:52:41;10.20;99.90
50947;DHT22;36955;47.416;7.716;2022-11-15T03:55:12;10.30;99.90
50947;DHT22;36955;47.416;7.716;2022-11-15T03:57:38;10.30;99.90
50947;DHT22;36955;47.416;7.716;2022-11-15T04:00:05;10.30;99.90
50947;DHT22;36955;47.416;7.716;2022-11-15T04:02:31;10.40;99.90
50947;DHT22;36955;47.416;7.716;2022-11-15T04:04:57;10.40;99.90
50947;DHT22;36955;47.416;7.716;2022-11-15T04:07:23;10.50;99.90
50947;DHT22;36955;47.416;7.716;2022-11-15T04:09:49;10.50;99.90
50947;DHT22;36955;47.416;7.716;2022-11-15T04:12:15;10.70;99.90
50947;DHT22;36955;47.416;7.716;2022-11-15T04:14:41;10.80;99.90
50947;DHT22;36955;47.416;7.716;2022-11-15T04:17:07;10.80;99.90
50947;DHT22;36955;47.416;7.716;2022-11-15T04:19:33;10.80;99.90
50947;DHT22;36955;47.416;7.716;2022-11-15T04:21:59;10.80;99.90
50947;DHT22;36955;47.416;7.716;2022-11-15T04:24:25;10.90;99.90
50947;DHT22;36955;47.416;7.716;2022-11-15T04:26:51;10.90;99.90
50947;DHT22;36955;47.416;7.716;2022-11-15T04:29:17;10.90;99.90
50947;DHT22;36955;47.416;7.716;2022-11-15T04:31:43;10.90;99.90
50947;DHT22;36955;47.416;7.716;2022-11-15T04:34:09;10.90;99.90
50947;DHT22;36955;47.416;7.716;2022-11-15T04:36:35;10.80;99.90
50947;DHT22;36955;47.416;7.716;2022-11-15T04:39:01;10.80;99.90
50947;DHT22;36955;47.416;7.716;2022-11-15T04:41:27;10.80;99.90
50947;DHT22;36955;47.416;7.716;2022-11-15T04:43:53;10.80;99.90
50947;DHT22;36955;47.416;7.716;2022-11-15T04:46:19;10.90;99.90
50947;DHT22;36955;47.416;7.716;2022-11-15T04:48:45;10.90;99.90
50947;DHT22;36955;47.416;7.716;2022-11-15T04:51:11;10.90;99.90
50947;DHT22;36955;47.416;7.716;2022-11-15T04:53:37;10.90;99.90
50947;DHT22;36955;47.416;7.716;2022-11-15T04:56:04;10.80;99.90
50947;DHT22;36955;47.416;7.716;2022-11-15T04:58:30;10.80;99.90
50947;DHT22;36955;47.416;7.716;2022-11-15T05:00:56;10.70;99.90
50947;DHT22;36955;47.416;7.716;2022-11-15T05:03:22;10.70;99.90
50947;DHT22;36955;47.416;7.716;2022-11-15T05:05:48;10.60;99.90
50947;DHT22;36955;47.416;7.716;2022-11-15T05:08:14;10.70;99.90
50947;DHT22;36955;47.416;7.716;2022-11-15T05:10:40;10.60;99.90
50947;DHT22;36955;47.416;7.716;2022-11-15T05:13:06;10.60;99.90
50947;DHT22;36955;47.416;7.716;2022-11-15T05:15:32;10.60;99.90
50947;DHT22;36955;47.416;7.716;2022-11-15T05:17:59;10.70;99.90
50947;DHT22;36955;47.416;7.716;2022-11-15T05:20:25;10.70;99.90
50947;DHT22;36955;47.416;7.716;2022-11-15T05:22:53;10.70;99.90
50947;DHT22;36955;47.416;7.716;2022-11-15T05:25:19;10.70;99.90
50947;DHT22;36955;47.416;7.716;2022-11-15T05:27:45;10.70;99.90
50947;DHT22;36955;47.416;7.716;2022-11-15T05:30:11;10.70;99.90
50947;DHT22;36955;47.416;7.716;2022-11-15T05:32:37;10.70;99.90
50947;DHT22;36955;47.416;7.716;2022-11-15T05:35:07;10.70;99.90
50947;DHT22;36955;47.416;7.716;2022-11-15T05:37:34;10.70;99.90
50947;DHT22;36955;47.416;7.716;2022-11-15T05:40:00;10.70;99.90
50947;DHT22;36955;47.416;7.716;2022-11-15T05:42:27;10.70;99.90
50947;DHT22;36955;47.416;7.716;2022-11-15T05:44:53;10.70;99.90
50947;DHT22;36955;47.416;7.716;2022-11-15T05:47:23;10.70;99.90
50947;DHT22;36955;47.416;7.716;2022-11-15T05:49:51;10.70;99.90
50947;DHT22;36955;47.416;7.716;2022-11-15T05:52:25;10.80;99.90
50947;DHT22;36955;47.416;7.716;2022-11-15T05:54:53;10.80;99.90
50947;DHT22;36955;47.416;7.716;2022-11-15T05:57:20;10.80;99.90
50947;DHT22;36955;47.416;7.716;2022-11-15T05:59:46;10.80;99.90
50947;DHT22;36955;47.416;7.716;2022-11-15T06:02:12;10.80;99.90
50947;DHT22;36955;47.416;7.716;2022-11-15T06:04:38;10.70;99.90
50947;DHT22;36955;47.416;7.716;2022-11-15T06:07:04;10.40;99.90
50947;DHT22;36955;47.416;7.716;2022-11-15T06:09:30;10.20;99.90
50947;DHT22;36955;47.416;7.716;2022-11-15T06:11:56;10.10;99.90
50947;DHT22;36955;47.416;7.716;2022-11-15T06:14:22;10.00;99.90
50947;DHT22;36955;47.416;7.716;2022-11-15T06:16:48;10.00;99.90
50947;DHT22;36955;47.416;7.716;2022-11-15T06:19:14;10.10;99.90
50947;DHT22;36955;47.416;7.716;2022-11-15T06:21:40;10.20;99.90
50947;DHT22;36955;47.416;7.716;2022-11-15T06:24:06;10.20;99.90
50947;DHT22;36955;47.416;7.716;2022-11-15T06:26:33;10.20;99.90
50947;DHT22;36955;47.416;7.716;2022-11-15T06:28:59;10.20;99.90
50947;DHT22;36955;47.416;7.716;2022-11-15T06:31:25;10.20;99.90
50947;DHT22;36955;47.416;7.716;2022-11-15T06:33:51;10.20;99.90
50947;DHT22;36955;47.416;7.716;2022-11-15T06:36:17;10.20;99.90
50947;DHT22;36955;47.416;7.716;2022-11-15T06:38:44;10.00;99.90
50947;DHT22;36955;47.416;7.716;2022-11-15T06:41:11;9.90;99.90
50947;DHT22;36955;47.416;7.716;2022-11-15T06:43:38;9.90;99.90
50947;DHT22;36955;47.416;7.716;2022-11-15T06:46:05;9.80;99.90
50947;DHT22;36955;47.416;7.716;2022-11-15T06:48:32;9.70;99.90
50947;DHT22;36955;47.416;7.716;2022-11-15T06:50:59;9.70;99.90
50947;DHT22;36955;47.416;7.716;2022-11-15T06:53:26;9.70;99.90
50947;DHT22;36955;47.416;7.716;2022-11-15T06:55:53;9.70;99.90
50947;DHT22;36955;47.416;7.716;2022-11-15T06:58:23;9.70;99.90
50947;DHT22;36955;47.416;7.716;2022-11-15T07:00:49;9.60;99.90
50947;DHT22;36955;47.416;7.716;2022-11-15T07:03:15;9.60;99.90
50947;DHT22;36955;47.416;7.716;2022-11-15T07:05:41;9.60;99.90
50947;DHT22;36955;47.416;7.716;2022-11-15T07:08:07;9.60;99.90
50947;DHT22;36955;47.416;7.716;2022-11-15T07:10:33;9.70;99.90
50947;DHT22;36955;47.416;7.716;2022-11-15T07:12:59;9.70;99.90
50947;DHT22;36955;47.416;7.716;2022-11-15T07:15:25;9.70;99.90
50947;DHT22;36955;47.416;7.716;2022-11-15T07:17:52;9.80;99.90
50947;DHT22;36955;47.416;7.716;2022-11-15T07:20:18;9.80;99.90
50947;DHT22;36955;47.416;7.716;2022-11-15T07:22:44;9.80;99.90
50947;DHT22;36955;47.416;7.716;2022-11-15T07:25:11;9.90;99.90
50947;DHT22;36955;47.416;7.716;2022-11-15T07:27:37;10.00;99.90
50947;DHT22;36955;47.416;7.716;2022-11-15T07:30:04;10.00;99.90
50947;DHT22;36955;47.416;7.716;2022-11-15T07:32:31;10.00;99.90
50947;DHT22;36955;47.416;7.716;2022-11-15T07:34:57;10.00;99.90
50947;DHT22;36955;47.416;7.716;2022-11-15T07:37:23;10.10;99.90
50947;DHT22;36955;47.416;7.716;2022-11-15T07:39:49;10.00;99.90
50947;DHT22;36955;47.416;7.716;2022-11-15T07:42:15;10.00;99.90
50947;DHT22;36955;47.416;7.716;2022-11-15T07:44:41;10.10;99.90
50947;DHT22;36955;47.416;7.716;2022-11-15T07:47:07;10.10;99.90
50947;DHT22;36955;47.416;7.716;2022-11-15T07:49:33;10.00;99.90
50947;DHT22;36955;47.416;7.716;2022-11-15T07:51:59;10.00;99.90
50947;DHT22;36955;47.416;7.716;2022-11-15T07:54:25;10.00;99.90
50947;DHT22;36955;47.416;7.716;2022-11-15T07:56:51;10.00;99.90
50947;DHT22;36955;47.416;7.716;2022-11-15T07:59:17;10.00;99.90
50947;DHT22;36955;47.416;7.716;2022-11-15T08:01:43;10.10;99.90
50947;DHT22;36955;47.416;7.716;2022-11-15T08:04:10;10.20;99.90
50947;DHT22;36955;47.416;7.716;2022-11-15T08:06:36;10.20;99.90
50947;DHT22;36955;47.416;7.716;2022-11-15T08:09:03;10.30;99.90
50947;DHT22;36955;47.416;7.716;2022-11-15T08:11:29;10.30;99.90
50947;DHT22;36955;47.416;7.716;2022-11-15T08:13:55;10.40;99.90
50947;DHT22;36955;47.416;7.716;2022-11-15T08:16:21;10.30;99.90
50947;DHT22;36955;47.416;7.716;2022-11-15T08:18:47;10.10;99.90
50947;DHT22;36955;47.416;7.716;2022-11-15T08:21:18;10.00;99.90
50947;DHT22;36955;47.416;7.716;2022-11-15T08:23:44;10.00;99.90
50947;DHT22;36955;47.416;7.716;2022-11-15T08:26:10;10.00;99.90
50947;DHT22;36955;47.416;7.716;2022-11-15T08:28:37;10.00;99.90
50947;DHT22;36955;47.416;7.716;2022-11-15T08:31:04;10.00;99.90
50947;DHT22;36955;47.416;7.716;2022-11-15T08:33:31;10.00;99.90
50947;DHT22;36955;47.416;7.716;2022-11-15T08:35:59;10.00;99.90
50947;DHT22;36955;47.416;7.716;2022-11-15T08:38:25;10.10;99.90
50947;DHT22;36955;47.416;7.716;2022-11-15T08:40:53;10.10;99.90
50947;DHT22;36955;47.416;7.716;2022-11-15T08:43:24;10.10;99.90
50947;DHT22;36955;47.416;7.716;2022-11-15T08:45:50;10.20;99.90
50947;DHT22;36955;47.416;7.716;2022-11-15T08:48:16;10.20;99.90
50947;DHT22;36955;47.416;7.716;2022-11-15T08:50:42;10.30;99.90
50947;DHT22;36955;47.416;7.716;2022-11-15T08:53:12;10.40;99.90
50947;DHT22;36955;47.416;7.716;2022-11-15T08:55:39;10.50;99.90
50947;DHT22;36955;47.416;7.716;2022-11-15T08:58:05;10.50;99.90
50947;DHT22;36955;47.416;7.716;2022-11-15T09:00:33;10.50;99.90
50947;DHT22;36955;47.416;7.716;2022-11-15T09:02:59;10.50;99.90
50947;DHT22;36955;47.416;7.716;2022-11-15T09:05:26;10.60;99.90
50947;DHT22;36955;47.416;7.716;2022-11-15T09:07:55;10.70;99.90
50947;DHT22;36955;47.416;7.716;2022-11-15T09:10:21;10.70;99.90
50947;DHT22;36955;47.416;7.716;2022-11-15T09:12:48;10.70;99.90
50947;DHT22;36955;47.416;7.716;2022-11-15T09:15:15;10.70;99.90
50947;DHT22;36955;47.416;7.716;2022-11-15T09:17:41;10.70;99.90
50947;DHT22;36955;47.416;7.716;2022-11-15T09:20:08;10.60;99.90
50947;DHT22;36955;47.416;7.716;2022-11-15T09:22:34;10.70;99.90
50947;DHT22;36955;47.416;7.716;2022-11-15T09:25:00;10.60;99.90
50947;DHT22;36955;47.416;7.716;2022-11-15T09:27:29;10.60;99.90
50947;DHT22;36955;47.416;7.716;2022-11-15T09:29:56;10.70;99.90
50947;DHT22;36955;47.416;7.716;2022-11-15T09:32:22;10.70;99.90
50947;DHT22;36955;47.416;7.716;2022-11-15T09:34:48;10.70;99.90
50947;DHT22;36955;47.416;7.716;2022-11-15T09:37:15;10.70;99.90
50947;DHT22;36955;47.416;7.716;2022-11-15T09:39:41;10.80;99.90
50947;DHT22;36955;47.416;7.716;2022-11-15T09:42:25;10.80;99.90
50947;DHT22;36955;47.416;7.716;2022-11-15T09:50:14;10.90;99.90
50947;DHT22;36955;47.416;7.716;2022-11-15T09:52:44;11.00;99.90
50947;DHT22;36955;47.416;7.716;2022-11-15T09:55:12;11.10;99.90
50947;DHT22;36955;47.416;7.716;2022-11-15T09:57:57;11.00;99.90
50947;DHT22;36955;47.416;7.716;2022-11-15T10:00:40;11.00;99.90
50947;DHT22;36955;47.416;7.716;2022-11-15T10:03:13;11.00;99.90
50947;DHT22;36955;47.416;7.716;2022-11-15T10:05:48;11.00;99.90
50947;DHT22;36955;47.416;7.716;2022-11-15T10:11:23;10.90;99.90
50947;DHT22;36955;47.416;7.716;2022-11-15T10:13:52;10.90;99.90
50947;DHT22;36955;47.416;7.716;2022-11-15T10:24:44;10.90;99.90
50947;DHT22;36955;47.416;7.716;2022-11-15T10:27:15;10.90;99.90
50947;DHT22;36955;47.416;7.716;2022-11-15T10:29:46;11.00;99.90
50947;DHT22;36955;47.416;7.716;2022-11-15T10:32:14;10.90;99.90
50947;DHT22;36955;47.416;7.716;2022-11-15T10:34:40;11.00;99.90
50947;DHT22;36955;47.416;7.716;2022-11-15T10:37:06;11.00;99.90
50947;DHT22;36955;47.416;7.716;2022-11-15T10:39:33;11.00;99.90
50947;DHT22;36955;47.416;7.716;2022-11-15T10:42:27;11.00;99.90
50947;DHT22;36955;47.416;7.716;2022-11-15T10:44:54;11.00;99.90
50947;DHT22;36955;47.416;7.716;2022-11-15T10:47:24;11.10;99.90
50947;DHT22;36955;47.416;7.716;2022-11-15T10:50:05;11.20;99.90
50947;DHT22;36955;47.416;7.716;2022-11-15T10:52:34;11.20;99.90
50947;DHT22;36955;47.416;7.716;2022-11-15T10:55:22;11.30;99.90
50947;DHT22;36955;47.416;7.716;2022-11-15T10:57:56;11.30;99.90
50947;DHT22;36955;47.416;7.716;2022-11-15T11:00:34;11.30;99.90
50947;DHT22;36955;47.416;7.716;2022-11-15T11:03:03;11.30;99.90
50947;DHT22;36955;47.416;7.716;2022-11-15T11:07:58;11.20;99.90
50947;DHT22;36955;47.416;7.716;2022-11-15T11:10:25;11.10;99.90
50947;DHT22;36955;47.416;7.716;2022-11-15T11:12:51;11.10;99.90
50947;DHT22;36955;47.416;7.716;2022-11-15T11:15:17;11.10;99.90
50947;DHT22;36955;47.416;7.716;2022-11-15T11:23:44;11.30;99.90
50947;DHT22;36955;47.416;7.716;2022-11-15T11:32:34;11.60;99.90
50947;DHT22;36955;47.416;7.716;2022-11-15T11:35:28;11.70;99.90
50947;DHT22;36955;47.416;7.716;2022-11-15T11:38:10;11.70;99.90
50947;DHT22;36955;47.416;7.716;2022-11-15T11:43:48;11.70;99.90
50947;DHT22;36955;47.416;7.716;2022-11-15T11:46:34;11.80;99.90
50947;DHT22;36955;47.416;7.716;2022-11-15T11:49:08;11.80;99.90
50947;DHT22;36955;47.416;7.716;2022-11-15T11:51:42;11.70;99.90
50947;DHT22;36955;47.416;7.716;2022-11-15T11:54:19;11.60;99.90
50947;DHT22;36955;47.416;7.716;2022-11-15T11:56:46;11.70;99.90
50947;DHT22;36955;47.416;7.716;2022-11-15T11:59:23;11.70;99.90
50947;DHT22;36955;47.416;7.716;2022-11-15T12:01:51;11.70;99.90
50947;DHT22;36955;47.416;7.716;2022-11-15T12:04:30;11.80;99.90
50947;DHT22;36955;47.416;7.716;2022-11-15T12:07:25;11.80;99.90
50947;DHT22;36955;47.416;7.716;2022-11-15T12:10:04;11.80;99.90
50947;DHT22;36955;47.416;7.716;2022-11-15T12:12:39;11.80;99.90
50947;DHT22;36955;47.416;7.716;2022-11-15T12:15:15;11.90;99.90
50947;DHT22;36955;47.416;7.716;2022-11-15T12:17:41;11.90;99.90
50947;DHT22;36955;47.416;7.716;2022-11-15T12:23:10;11.90;99.90
50947;DHT22;36955;47.416;7.716;2022-11-15T12:36:41;11.80;99.90
50947;DHT22;36955;47.416;7.716;2022-11-15T12:39:12;11.70;99.90
50947;DHT22;36955;47.416;7.716;2022-11-15T12:59:56;11.90;99.90
50947;DHT22;36955;47.416;7.716;2022-11-15T13:04:52;11.90;99.90
50947;DHT22;36955;47.416;7.716;2022-11-15T13:18:18;12.00;99.90
50947;DHT22;36955;47.416;7.716;2022-11-15T13:20:32;12.00;99.90
50947;DHT22;36955;47.416;7.716;2022-11-15T13:23:08;12.00;99.90
50947;DHT22;36955;47.416;7.716;2022-11-15T13:31:19;11.90;99.90
50947;DHT22;36955;47.416;7.716;2022-11-15T13:33:46;12.00;99.90
50947;DHT22;36955;47.416;7.716;2022-11-15T13:36:27;11.90;99.90
50947;DHT22;36955;47.416;7.716;2022-11-15T13:41:32;11.80;99.90
50947;DHT22;36955;47.416;7.716;2022-11-15T13:44:00;11.70;99.90
50947;DHT22;36955;47.416;7.716;2022-11-15T13:46:31;11.70;99.90
50947;DHT22;36955;47.416;7.716;2022-11-15T13:49:07;11.70;99.90
50947;DHT22;36955;47.416;7.716;2022-11-15T13:51:47;11.70;99.90
50947;DHT22;36955;47.416;7.716;2022-11-15T13:59:35;11.70;99.90
50947;DHT22;36955;47.416;7.716;2022-11-15T14:02:16;11.80;99.90
50947;DHT22;36955;47.416;7.716;2022-11-15T14:05:02;11.70;99.90
50947;DHT22;36955;47.416;7.716;2022-11-15T14:07:31;11.80;99.90
50947;DHT22;36955;47.416;7.716;2022-11-15T14:09:57;11.80;99.90
50947;DHT22;36955;47.416;7.716;2022-11-15T14:14:49;11.80;99.90
50947;DHT22;36955;47.416;7.716;2022-11-15T14:19:59;11.80;99.90
50947;DHT22;36955;47.416;7.716;2022-11-15T14:22:26;11.90;99.90
50947;DHT22;36955;47.416;7.716;2022-11-15T14:25:17;11.90;99.90
50947;DHT22;36955;47.416;7.716;2022-11-15T14:28:06;11.90;99.90
50947;DHT22;36955;47.416;7.716;2022-11-15T14:30:30;11.90;99.90
50947;DHT22;36955;47.416;7.716;2022-11-15T14:32:56;11.80;99.90
50947;DHT22;36955;47.416;7.716;2022-11-15T14:35:23;11.90;99.90
50947;DHT22;36955;47.416;7.716;2022-11-15T14:37:50;11.80;99.90
50947;DHT22;36955;47.416;7.716;2022-11-15T14:40:18;11.90;99.90
50947;DHT22;36955;47.416;7.716;2022-11-15T14:42:46;11.90;99.90
50947;DHT22;36955;47.416;7.716;2022-11-15T14:45:17;11.80;99.90
50947;DHT22;36955;47.416;7.716;2022-11-15T14:47:44;11.80;99.90
50947;DHT22;36955;47.416;7.716;2022-11-15T14:50:13;11.80;99.90
50947;DHT22;36955;47.416;7.716;2022-11-15T14:52:40;11.70;99.90
50947;DHT22;36955;47.416;7.716;2022-11-15T14:55:25;11.80;99.90
50947;DHT22;36955;47.416;7.716;2022-11-15T14:57:51;11.80;99.90
50947;DHT22;36955;47.416;7.716;2022-11-15T15:00:18;11.70;99.90
50947;DHT22;36955;47.416;7.716;2022-11-15T15:02:45;11.70;99.90
50947;DHT22;36955;47.416;7.716;2022-11-15T15:05:46;11.70;99.90
50947;DHT22;36955;47.416;7.716;2022-11-15T15:08:11;11.70;99.90
50947;DHT22;36955;47.416;7.716;2022-11-15T15:10:43;11.70;99.90
50947;DHT22;36955;47.416;7.716;2022-11-15T15:13:21;11.70;99.90
50947;DHT22;36955;47.416;7.716;2022-11-15T15:15:48;11.70;99.90
50947;DHT22;36955;47.416;7.716;2022-11-15T15:18:15;11.70;99.90
50947;DHT22;36955;47.416;7.716;2022-11-15T15:20:43;11.80;99.90
50947;DHT22;36955;47.416;7.716;2022-11-15T15:23:19;11.70;99.90
50947;DHT22;36955;47.416;7.716;2022-11-15T15:25:47;11.70;99.90
50947;DHT22;36955;47.416;7.716;2022-11-15T15:28:13;11.80;99.90
50947;DHT22;36955;47.416;7.716;2022-11-15T15:30:39;11.80;99.90
50947;DHT22;36955;47.416;7.716;2022-11-15T15:33:06;11.70;99.90
50947;DHT22;36955;47.416;7.716;2022-11-15T15:35:34;11.70;99.90
50947;DHT22;36955;47.416;7.716;2022-11-15T15:38:00;11.70;99.90
50947;DHT22;36955;47.416;7.716;2022-11-15T15:40:29;11.60;99.90
50947;DHT22;36955;47.416;7.716;2022-11-15T15:42:55;11.60;99.90
50947;DHT22;36955;47.416;7.716;2022-11-15T15:45:21;11.50;99.90
50947;DHT22;36955;47.416;7.716;2022-11-15T15:47:47;11.50;99.90
50947;DHT22;36955;47.416;7.716;2022-11-15T15:50:33;11.60;99.90
50947;DHT22;36955;47.416;7.716;2022-11-15T15:53:01;11.70;99.90
50947;DHT22;36955;47.416;7.716;2022-11-15T15:55:28;11.80;99.90
50947;DHT22;36955;47.416;7.716;2022-11-15T15:57:54;11.80;99.90
50947;DHT22;36955;47.416;7.716;2022-11-15T16:00:22;11.80;99.90
50947;DHT22;36955;47.416;7.716;2022-11-15T16:02:49;11.80;99.90
50947;DHT22;36955;47.416;7.716;2022-11-15T16:05:15;11.80;99.90
50947;DHT22;36955;47.416;7.716;2022-11-15T16:07:41;11.80;99.90
50947;DHT22;36955;47.416;7.716;2022-11-15T16:12:42;11.70;99.90
50947;DHT22;36955;47.416;7.716;2022-11-15T16:15:09;11.60;99.90
50947;DHT22;36955;47.416;7.716;2022-11-15T16:17:38;11.50;99.90
50947;DHT22;36955;47.416;7.716;2022-11-15T16:20:06;11.40;99.90
50947;DHT22;36955;47.416;7.716;2022-11-15T16:22:32;11.30;99.90
50947;DHT22;36955;47.416;7.716;2022-11-15T16:24:58;11.30;99.90
50947;DHT22;36955;47.416;7.716;2022-11-15T16:27:24;11.30;99.90
50947;DHT22;36955;47.416;7.716;2022-11-15T16:29:50;11.20;99.90
50947;DHT22;36955;47.416;7.716;2022-11-15T16:32:16;11.30;99.90
50947;DHT22;36955;47.416;7.716;2022-11-15T16:34:42;11.20;99.90
50947;DHT22;36955;47.416;7.716;2022-11-15T16:37:28;11.20;99.90
50947;DHT22;36955;47.416;7.716;2022-11-15T16:39:54;11.20;99.90
50947;DHT22;36955;47.416;7.716;2022-11-15T16:42:20;11.20;99.90
50947;DHT22;36955;47.416;7.716;2022-11-15T16:44:46;11.20;99.90
50947;DHT22;36955;47.416;7.716;2022-11-15T16:47:19;11.20;99.90
50947;DHT22;36955;47.416;7.716;2022-11-15T16:49:45;11.20;99.90
50947;DHT22;36955;47.416;7.716;2022-11-15T16:52:11;11.20;99.90
50947;DHT22;36955;47.416;7.716;2022-11-15T16:54:37;11.20;99.90
50947;DHT22;36955;47.416;7.716;2022-11-15T16:57:03;11.10;99.90
50947;DHT22;36955;47.416;7.716;2022-11-15T16:59:29;11.10;99.90
50947;DHT22;36955;47.416;7.716;2022-11-15T17:01:55;11.10;99.90
50947;DHT22;36955;47.416;7.716;2022-11-15T17:04:21;11.10;99.90
50947;DHT22;36955;47.416;7.716;2022-11-15T17:06:48;11.10;99.90
50947;DHT22;36955;47.416;7.716;2022-11-15T17:09:19;11.00;99.90
50947;DHT22;36955;47.416;7.716;2022-11-15T17:11:46;11.10;99.90
50947;DHT22;36955;47.416;7.716;2022-11-15T17:14:14;11.10;99.90
50947;DHT22;36955;47.416;7.716;2022-11-15T17:16:40;11.10;99.90
50947;DHT22;36955;47.416;7.716;2022-11-15T17:19:16;11.10;99.90
50947;DHT22;36955;47.416;7.716;2022-11-15T17:21:43;11.10;99.90
50947;DHT22;36955;47.416;7.716;2022-11-15T17:24:09;11.00;99.90
50947;DHT22;36955;47.416;7.716;2022-11-15T17:26:36;10.90;99.90
50947;DHT22;36955;47.416;7.716;2022-11-15T17:29:02;10.90;99.90
50947;DHT22;36955;47.416;7.716;2022-11-15T17:31:28;10.90;99.90
50947;DHT22;36955;47.416;7.716;2022-11-15T17:33:54;10.90;99.90
50947;DHT22;36955;47.416;7.716;2022-11-15T17:36:20;11.00;99.90
50947;DHT22;36955;47.416;7.716;2022-11-15T17:38:47;11.10;99.90
50947;DHT22;36955;47.416;7.716;2022-11-15T17:41:14;11.20;99.90
50947;DHT22;36955;47.416;7.716;2022-11-15T17:43:41;11.20;99.90
50947;DHT22;36955;47.416;7.716;2022-11-15T17:46:10;11.10;99.90
50947;DHT22;36955;47.416;7.716;2022-11-15T17:48:36;11.00;99.90
50947;DHT22;36955;47.416;7.716;2022-11-15T17:51:05;10.90;99.90